Time;durP1;ratioP1;P1;durP2;ratioP2;P2;SDS_P1;SDS_P2;PMS_P1;PMS_P2;Temp;Humidity;BMP_temperature;BMP_pressure;BME280_temperature;BME280_humidity;BME280_pressure;Samples;Min_cycle;Max_cycle;Signal;HPM_P1;HPM_P2
2022/05/31 00:00:29;;;;;;;11.65;6.97;;;;;;;8.44;93.85;101196.25;5213719;28;20053;-66
2022/05/31 00:03:03;;;;;;;10.13;6.93;;;;;;;8.43;94.58;101202.50;5229174;28;20033;-66
2022/05/31 00:05:35;;;;;;;11.35;7.15;;;;;;;8.34;94.57;101203.03;5210129;28;20029;-66
2022/05/31 00:08:07;;;;;;;11.95;7.15;;;;;;;8.37;95.83;101197.53;5215010;28;20105;-66
2022/05/31 00:10:38;;;;;;;12.07;6.82;;;;;;;8.38;96.18;101197.44;5216012;28;20018;-66
2022/05/31 00:13:10;;;;;;;11.07;6.78;;;;;;;8.35;95.81;101191.47;5216202;28;20391;-66
2022/05/31 00:15:41;;;;;;;11.13;6.97;;;;;;;8.25;95.85;101184.06;5204703;28;20061;-66
2022/05/31 00:18:13;;;;;;;9.05;6.78;;;;;;;8.17;94.61;101191.66;5209085;28;20034;-66
2022/05/31 00:20:44;;;;;;;9.57;6.50;;;;;;;8.13;95.81;101186.59;5216522;28;20045;-66
2022/05/31 00:23:16;;;;;;;10.98;6.70;;;;;;;8.22;96.22;101194.84;5209278;28;20112;-66
2022/05/31 00:25:47;;;;;;;12.80;7.30;;;;;;;8.22;96.67;101194.00;5206266;28;20053;-67
2022/05/31 00:28:19;;;;;;;7.90;6.93;;;;;;;8.12;96.62;101188.41;5219172;28;20034;-67
2022/05/31 00:30:52;;;;;;;10.75;6.55;;;;;;;8.17;96.56;101199.63;5212609;28;20496;-66
2022/05/31 00:33:25;;;;;;;10.73;7.10;;;;;;;8.08;96.83;101197.50;5202537;28;20097;-67
2022/05/31 00:35:57;;;;;;;12.50;6.82;;;;;;;7.98;95.70;101186.59;5205183;28;20044;-66
2022/05/31 00:38:28;;;;;;;8.35;6.30;;;;;;;8.03;96.90;101195.16;5206739;28;20026;-67
2022/05/31 00:41:23;;;;;;;11.82;6.85;;;;;;;7.98;95.86;101194.56;5213349;28;20026;-67
2022/05/31 00:43:59;;;;;;;9.90;6.88;;;;;;;8.09;97.37;101193.03;5199206;28;20080;-66
2022/05/31 00:46:41;;;;;;;9.30;6.82;;;;;;;7.99;96.14;101192.75;5210836;28;20030;-66
2022/05/31 00:49:18;;;;;;;10.10;6.60;;;;;;;8.07;97.07;101193.13;5215240;28;20116;-66
2022/05/31 00:51:53;;;;;;;9.85;6.60;;;;;;;8.08;97.25;101196.66;5204005;28;20451;-66
2022/05/31 00:54:27;;;;;;;10.93;7.30;;;;;;;8.02;97.53;101190.75;5217661;28;20022;-66
2022/05/31 00:56:59;;;;;;;11.20;7.43;;;;;;;8.02;97.94;101192.56;5218657;28;20030;-67
2022/05/31 00:59:40;;;;;;;12.02;7.15;;;;;;;8.04;98.82;101196.84;5217995;28;20033;-66
2022/05/31 01:02:12;;;;;;;11.13;7.05;;;;;;;8.02;98.91;101197.88;5215309;28;20037;-66
2022/05/31 01:04:48;;;;;;;10.68;7.05;;;;;;;8.01;98.70;101193.50;5215745;28;20033;-67
2022/05/31 01:07:20;;;;;;;8.15;7.03;;;;;;;8.00;98.83;101194.47;5207440;28;20026;-67
2022/05/31 01:09:52;;;;;;;10.63;6.82;;;;;;;8.01;98.81;101194.34;5200752;28;20092;-67
2022/05/31 01:12:25;;;;;;;9.52;6.85;;;;;;;8.03;98.83;101189.84;5198808;28;20026;-67
2022/05/31 01:14:57;;;;;;;12.63;7.57;;;;;;;8.02;99.73;101185.44;5214405;28;20030;-67
2022/05/31 01:17:28;;;;;;;12.93;7.10;;;;;;;8.01;99.21;101183.72;5217454;28;20234;-67
2022/05/31 01:20:04;;;;;;;10.32;7.13;;;;;;;7.96;99.14;101185.81;5203104;28;20116;-69
2022/05/31 01:22:42;;;;;;;10.23;6.65;;;;;;;7.96;97.88;101184.97;5211293;28;20378;-69
2022/05/31 01:25:23;;;;;;;9.80;6.47;;;;;;;7.89;98.27;101180.97;5214934;28;20026;-69
2022/05/31 01:28:13;;;;;;;8.27;6.68;;;;;;;7.90;98.16;101177.34;5206153;28;20026;-66
2022/05/31 01:30:54;;;;;;;10.98;7.38;;;;;;;7.85;98.60;101175.81;5209863;28;20054;-67
2022/05/31 01:33:33;;;;;;;8.90;7.13;;;;;;;7.84;99.44;101173.25;5212541;28;20057;-66
2022/05/31 01:36:17;;;;;;;10.25;7.05;;;;;;;7.82;98.40;101183.13;5201539;28;20022;-66
2022/05/31 01:38:59;;;;;;;9.63;7.45;;;;;;;7.80;99.65;101177.06;5212266;28;20033;-66
2022/05/31 01:41:38;;;;;;;10.63;7.03;;;;;;;7.73;99.63;101178.34;5216270;28;20045;-66
2022/05/31 01:44:14;;;;;;;10.60;7.10;;;;;;;7.73;99.88;101181.88;5209630;28;20505;-67
2022/05/31 01:46:49;;;;;;;13.95;7.82;;;;;;;7.67;100.00;101171.63;5217021;28;20492;-67
2022/05/31 01:49:22;;;;;;;11.25;7.47;;;;;;;7.68;100.00;101177.78;5212503;28;20036;-66
2022/05/31 01:51:55;;;;;;;11.57;7.78;;;;;;;7.66;100.00;101177.88;5208077;28;20030;-67
2022/05/31 01:54:27;;;;;;;10.55;7.80;;;;;;;7.67;100.00;101166.31;5205276;28;20387;-67
2022/05/31 01:57:01;;;;;;;10.77;7.72;;;;;;;7.62;100.00;101179.00;5209125;28;20507;-66
2022/05/31 01:59:38;;;;;;;9.25;7.80;;;;;;;7.63;100.00;101173.59;5211467;28;20014;-66
2022/05/31 02:02:10;;;;;;;9.70;8.25;;;;;;;7.64;100.00;101175.31;5201729;28;20045;-66
2022/05/31 02:04:42;;;;;;;11.48;8.25;;;;;;;7.60;100.00;101170.28;5211487;28;20026;-66
2022/05/31 02:07:19;;;;;;;11.13;8.48;;;;;;;7.59;100.00;101166.78;5208656;28;20476;-66
2022/05/31 02:09:52;;;;;;;13.40;8.70;;;;;;;7.59;100.00;101173.84;5211978;28;20038;-67
2022/05/31 02:12:26;;;;;;;13.00;8.93;;;;;;;7.56;100.00;101166.09;5216545;28;20037;-67
2022/05/31 02:14:58;;;;;;;14.88;8.65;;;;;;;7.48;100.00;101169.19;5215129;28;20040;-70
2022/05/31 02:17:29;;;;;;;16.58;9.75;;;;;;;7.50;100.00;101172.63;5199000;28;20038;-66
2022/05/31 02:20:00;;;;;;;13.73;9.02;;;;;;;7.56;100.00;101169.59;5201768;28;20030;-67
2022/05/31 02:22:32;;;;;;;13.90;9.10;;;;;;;7.60;100.00;101163.16;5213363;28;20034;-66
2022/05/31 02:25:03;;;;;;;15.60;9.48;;;;;;;7.69;100.00;101160.88;5198036;28;20452;-66
2022/05/31 02:27:34;;;;;;;13.20;8.88;;;;;;;7.59;100.00;101164.13;5205788;28;20080;-66
2022/05/31 02:30:06;;;;;;;13.50;8.15;;;;;;;7.62;100.00;101166.56;5212200;28;20026;-66
2022/05/31 02:32:38;;;;;;;13.30;9.20;;;;;;;7.70;100.00;101160.81;5202054;28;20466;-66
2022/05/31 02:35:11;;;;;;;11.75;8.30;;;;;;;7.62;100.00;101160.41;5207916;28;20022;-66
2022/05/31 02:37:42;;;;;;;13.93;8.38;;;;;;;7.62;100.00;101153.28;5208414;28;20022;-66
2022/05/31 02:40:13;;;;;;;12.75;7.63;;;;;;;7.63;98.85;101149.72;5208382;28;20037;-66
2022/05/31 02:42:44;;;;;;;10.60;7.82;;;;;;;7.61;97.79;101148.94;5199412;28;20022;-66
2022/05/31 02:45:16;;;;;;;11.10;7.40;;;;;;;7.65;98.54;101153.13;5208932;28;20101;-66
2022/05/31 02:47:47;;;;;;;12.55;8.25;;;;;;;7.73;100.00;101155.31;5214413;28;20511;-66
2022/05/31 02:50:18;;;;;;;14.98;7.10;;;;;;;7.63;98.90;101156.78;5211072;28;20025;-66
2022/05/31 02:52:50;;;;;;;11.23;7.75;;;;;;;7.66;99.59;101151.31;5215626;28;20030;-66
2022/05/31 02:55:21;;;;;;;11.68;7.50;;;;;;;7.67;98.55;101150.38;5207913;28;20053;-66
2022/05/31 02:57:52;;;;;;;10.75;7.78;;;;;;;7.77;99.13;101150.69;5214427;28;20041;-66
2022/05/31 03:00:24;;;;;;;10.35;7.32;;;;;;;7.69;97.86;101148.50;5206606;28;20037;-67
2022/05/31 03:02:55;;;;;;;10.18;7.38;;;;;;;7.68;97.26;101151.22;5212473;28;20029;-66
2022/05/31 03:05:26;;;;;;;9.30;6.70;;;;;;;7.81;98.67;101150.41;5214898;28;20096;-67
2022/05/31 03:07:58;;;;;;;11.68;7.57;;;;;;;7.72;98.27;101150.94;5215603;28;20228;-67
2022/05/31 03:10:34;;;;;;;12.35;7.03;;;;;;;7.72;98.34;101145.63;5210806;28;20023;-66
2022/05/31 03:13:09;;;;;;;11.15;6.82;;;;;;;7.75;96.56;101139.31;5197092;28;20033;-67
2022/05/31 03:15:41;;;;;;;10.25;7.22;;;;;;;7.73;95.94;101154.44;5212556;28;20120;-66
2022/05/31 03:18:21;;;;;;;10.48;7.05;;;;;;;7.79;96.54;101144.31;5205319;28;20498;-67
2022/05/31 03:20:56;;;;;;;10.25;6.82;;;;;;;7.84;96.92;101139.59;5218933;28;20030;-67
2022/05/31 03:23:33;;;;;;;8.95;7.20;;;;;;;7.78;97.64;101136.44;5206893;28;20035;-67
2022/05/31 03:26:08;;;;;;;9.43;6.45;;;;;;;7.89;97.58;101143.78;5207626;28;20026;-66
2022/05/31 03:28:39;;;;;;;11.27;6.93;;;;;;;7.82;97.80;101137.97;5215018;28;20026;-66
2022/05/31 03:31:11;;;;;;;9.68;6.53;;;;;;;7.85;97.16;101133.31;5207666;28;20033;-66
2022/05/31 03:33:42;;;;;;;13.23;6.78;;;;;;;7.98;98.13;101135.25;5210366;28;20022;-66
2022/05/31 03:36:14;;;;;;;10.90;6.97;;;;;;;7.91;97.65;101134.75;5206876;28;20033;-67
2022/05/31 03:38:45;;;;;;;10.90;6.97;;;;;;;8.00;96.96;101131.53;5215137;28;20120;-67
2022/05/31 03:41:16;;;;;;;12.43;7.00;;;;;;;7.98;97.99;101133.44;5206377;28;20057;-67
2022/05/31 03:43:48;;;;;;;14.38;6.82;;;;;;;7.97;97.39;101131.72;5197833;28;20366;-69
2022/05/31 03:46:19;;;;;;;11.50;7.15;;;;;;;8.10;98.53;101134.50;5211884;28;20479;-68
2022/05/31 03:48:50;;;;;;;10.75;6.72;;;;;;;8.01;98.34;101133.22;5211728;28;20495;-67
2022/05/31 03:51:22;;;;;;;11.05;7.28;;;;;;;8.11;98.80;101135.34;5209078;28;20393;-67
2022/05/31 03:53:53;;;;;;;11.30;7.22;;;;;;;8.07;97.61;101133.81;5204871;28;20496;-67
2022/05/31 03:56:24;;;;;;;11.25;6.88;;;;;;;8.19;96.52;101127.78;5215064;28;20430;-67
2022/05/31 03:58:55;;;;;;;10.75;7.40;;;;;;;8.17;96.87;101132.28;5201001;28;20030;-66
2022/05/31 04:01:27;;;;;;;12.65;7.68;;;;;;;8.27;98.59;101127.28;5199476;28;20448;-67
2022/05/31 04:03:58;;;;;;;11.55;7.50;;;;;;;8.30;99.23;101132.41;5209370;28;20038;-66
2022/05/31 04:06:35;;;;;;;10.82;7.50;;;;;;;8.23;98.14;101130.13;5202406;28;20046;-66
2022/05/31 04:09:06;;;;;;;11.02;7.65;;;;;;;8.26;98.06;101129.06;5214402;28;20026;-67
2022/05/31 04:11:37;;;;;;;10.13;7.68;;;;;;;8.36;99.46;101127.56;5214106;28;20503;-67
2022/05/31 04:14:08;;;;;;;10.40;7.18;;;;;;;8.30;96.29;101122.59;5209580;28;20026;-67
2022/05/31 04:16:40;;;;;;;11.70;7.72;;;;;;;8.45;98.72;101120.84;5213808;28;20129;-66
2022/05/31 04:19:11;;;;;;;11.63;7.40;;;;;;;8.47;99.00;101126.06;5213017;28;20022;-66
2022/05/31 04:21:42;;;;;;;11.23;7.22;;;;;;;8.42;97.37;101126.38;5204275;28;20026;-67
2022/05/31 04:24:13;;;;;;;12.90;7.82;;;;;;;8.59;98.53;101130.59;5214434;28;20029;-66
2022/05/31 04:26:47;;;;;;;11.45;7.90;;;;;;;8.58;99.07;101128.91;5206628;28;20038;-66
2022/05/31 04:29:18;;;;;;;13.53;8.43;;;;;;;8.59;98.55;101128.81;5210662;28;20042;-67
2022/05/31 04:31:49;;;;;;;12.18;8.25;;;;;;;8.68;99.32;101127.34;5210149;28;20096;-66
2022/05/31 04:34:21;;;;;;;11.38;8.05;;;;;;;8.72;98.26;101125.34;5210225;28;20044;-67
2022/05/31 04:36:52;;;;;;;10.00;7.53;;;;;;;8.83;98.08;101125.50;5215031;28;20392;-66
2022/05/31 04:39:23;;;;;;;11.07;7.85;;;;;;;8.80;98.42;101128.34;5212923;28;20041;-66
2022/05/31 04:41:55;;;;;;;10.45;7.28;;;;;;;8.73;95.87;101122.59;5205142;28;20029;-67
2022/05/31 04:44:26;;;;;;;12.63;8.82;;;;;;;8.84;98.67;101116.59;5214748;28;20037;-67
2022/05/31 04:46:57;;;;;;;12.02;7.95;;;;;;;8.79;96.63;101129.31;5209553;28;20064;-67
2022/05/31 04:49:29;;;;;;;15.13;8.60;;;;;;;8.83;97.24;101121.03;5204443;28;20101;-66
2022/05/31 04:52:00;;;;;;;11.00;8.48;;;;;;;8.85;97.71;101117.44;5213221;28;20057;-67
2022/05/31 04:54:32;;;;;;;12.40;8.52;;;;;;;8.90;97.78;101120.63;5207512;28;20530;-66
2022/05/31 04:57:04;;;;;;;12.93;8.38;;;;;;;9.02;98.42;101120.69;5206208;28;20511;-67
2022/05/31 04:59:36;;;;;;;10.95;8.70;;;;;;;9.11;97.22;101113.03;5219295;28;20022;-66
2022/05/31 05:02:07;;;;;;;13.65;8.27;;;;;;;9.18;98.64;101120.53;5211455;28;20026;-66
2022/05/31 05:04:38;;;;;;;14.15;10.07;;;;;;;9.26;96.53;101122.69;5198736;28;20109;-67
2022/05/31 05:07:10;;;;;;;13.32;8.27;;;;;;;9.27;95.77;101118.22;5202531;28;20506;-67
2022/05/31 05:09:41;;;;;;;11.00;8.55;;;;;;;9.29;96.17;101116.31;5199384;28;20053;-67
2022/05/31 05:12:12;;;;;;;13.02;8.65;;;;;;;9.40;96.43;101122.63;5214465;28;20041;-67
2022/05/31 05:14:44;;;;;;;14.05;8.70;;;;;;;9.48;96.50;101116.78;5205635;28;20381;-67
2022/05/31 05:17:15;;;;;;;12.13;8.73;;;;;;;9.48;94.20;101122.09;5210861;28;20050;-67
2022/05/31 05:19:46;;;;;;;14.15;9.85;;;;;;;9.64;97.66;101110.41;5208202;28;20514;-68
2022/05/31 05:22:18;;;;;;;9.63;7.90;;;;;;;9.67;94.76;101110.22;5217879;28;20440;-68
2022/05/31 05:24:49;;;;;;;13.07;9.38;;;;;;;9.72;97.86;101108.94;5211503;28;20512;-67
2022/05/31 05:27:20;;;;;;;14.93;9.77;;;;;;;9.82;96.92;101112.66;5213950;28;20025;-67
2022/05/31 05:32:41;;;;;;;14.52;9.30;;;;;;;9.97;97.29;101117.88;5213584;28;20559;-66
2022/05/31 05:35:13;;;;;;;14.35;8.95;;;;;;;10.08;96.61;101117.13;5215510;28;20038;-67
2022/05/31 05:37:44;;;;;;;13.60;9.07;;;;;;;10.05;96.09;101118.22;5217059;28;20037;-67
2022/05/31 05:40:15;;;;;;;12.88;9.88;;;;;;;10.18;96.04;101116.41;5203945;28;20395;-67
2022/05/31 05:42:46;;;;;;;13.00;9.15;;;;;;;10.17;94.10;101116.50;5203775;28;20420;-67
2022/05/31 05:45:21;;;;;;;13.40;9.27;;;;;;;10.19;94.21;101111.91;5203824;28;20053;-68
2022/05/31 05:47:52;;;;;;;13.80;9.52;;;;;;;10.27;95.46;101116.69;5211454;28;20030;-68
2022/05/31 05:50:23;;;;;;;12.27;9.48;;;;;;;10.21;95.67;101110.81;5217506;28;20381;-68
2022/05/31 05:53:01;;;;;;;13.70;9.65;;;;;;;10.33;95.76;101111.81;5204643;28;20395;-69
2022/05/31 05:55:37;;;;;;;14.60;9.30;;;;;;;10.32;92.99;101114.59;5215361;28;20029;-68
2022/05/31 05:58:08;;;;;;;13.82;9.70;;;;;;;10.39;92.53;101127.38;5218155;28;20521;-68
2022/05/31 06:00:47;;;;;;;16.83;10.57;;;;;;;10.47;94.14;101121.50;5215892;28;20626;-67
2022/05/31 06:03:43;;;;;;;16.40;10.45;;;;;;;10.62;92.72;101116.84;5210062;28;20396;-68
2022/05/31 06:06:17;;;;;;;13.35;9.88;;;;;;;10.64;93.70;101109.59;5210685;28;20045;-67
2022/05/31 06:08:55;;;;;;;13.40;10.02;;;;;;;10.65;93.10;101111.31;5216734;28;20025;-67
2022/05/31 06:11:32;;;;;;;16.52;10.18;;;;;;;10.65;94.06;101115.81;5208442;28;20030;-68
2022/05/31 06:14:14;;;;;;;17.08;10.20;;;;;;;10.65;91.83;101113.13;5217887;28;20036;-68
2022/05/31 06:17:00;;;;;;;14.45;10.25;;;;;;;10.67;91.55;101108.53;5212111;28;20053;-67
2022/05/31 06:19:35;;;;;;;19.88;10.63;;;;;;;10.67;91.38;101106.72;5211696;28;20026;-67
2022/05/31 06:22:08;;;;;;;15.15;10.32;;;;;;;10.82;92.39;101111.91;5215862;28;20481;-67
2022/05/31 06:24:40;;;;;;;17.45;10.93;;;;;;;10.76;92.18;101106.03;5216185;28;20026;-67
2022/05/31 06:27:12;;;;;;;18.23;10.95;;;;;;;10.78;91.59;101106.78;5217610;28;20032;-68
2022/05/31 06:29:43;;;;;;;18.48;11.73;;;;;;;10.87;91.75;101113.25;5213652;28;20029;-67
2022/05/31 06:32:16;;;;;;;18.52;11.25;;;;;;;10.99;92.22;101112.34;5207485;28;20033;-67
2022/05/31 06:34:47;;;;;;;14.07;11.70;;;;;;;11.15;92.77;101120.06;5201197;28;20105;-67
2022/05/31 06:37:18;;;;;;;14.40;10.50;;;;;;;11.28;90.81;101117.34;5200164;28;20128;-68
2022/05/31 06:39:50;;;;;;;16.40;10.38;;;;;;;11.42;89.44;101120.78;5205433;28;20049;-68
2022/05/31 06:42:21;;;;;;;13.90;10.52;;;;;;;11.48;90.04;101125.66;5199910;28;20586;-68
2022/05/31 06:44:56;;;;;;;14.25;10.13;;;;;;;11.60;89.07;101123.88;5212921;28;20076;-68
2022/05/31 06:47:27;;;;;;;17.13;10.63;;;;;;;11.62;87.57;101125.50;5206494;28;20361;-68
2022/05/31 06:49:59;;;;;;;15.82;10.25;;;;;;;11.66;89.21;101121.59;5215806;28;20032;-68
2022/05/31 06:58:10;;;;;;;13.30;9.68;;;;;;;11.76;84.54;101130.59;5199707;28;20030;-68
2022/05/31 07:00:41;;;;;;;13.85;10.02;;;;;;;11.78;85.99;101123.31;5204532;28;20475;-68
2022/05/31 07:03:12;;;;;;;16.20;10.07;;;;;;;11.87;84.83;101119.09;5201622;28;20424;-68
2022/05/31 07:05:44;;;;;;;14.60;9.27;;;;;;;11.99;83.95;101120.00;5208819;28;20391;-68
2022/05/31 07:08:15;;;;;;;12.90;9.15;;;;;;;12.15;82.74;101120.47;5207540;28;20350;-68
2022/05/31 07:10:46;;;;;;;13.90;9.27;;;;;;;12.32;82.40;101113.78;5205210;28;20065;-68
2022/05/31 07:13:18;;;;;;;12.60;8.85;;;;;;;12.58;80.76;101118.91;5211356;28;20041;-68
2022/05/31 07:15:51;;;;;;;12.45;8.40;;;;;;;12.70;78.52;101111.69;5213043;28;20044;-68
2022/05/31 07:18:22;;;;;;;12.15;8.40;;;;;;;12.82;79.47;101104.50;5215398;28;20165;-69
2022/05/31 07:20:53;;;;;;;10.55;7.78;;;;;;;13.16;78.09;101112.44;5213005;28;20451;-68
2022/05/31 07:23:25;;;;;;;12.18;8.65;;;;;;;13.32;78.68;101112.84;5211814;28;20372;-68
2022/05/31 07:25:58;;;;;;;11.15;8.30;;;;;;;13.59;77.10;101109.69;5213083;28;20040;-69
2022/05/31 07:28:30;;;;;;;11.40;7.67;;;;;;;13.77;75.19;101107.28;5213018;28;20014;-68
2022/05/31 07:31:02;;;;;;;10.85;7.47;;;;;;;13.87;73.17;101113.53;5215362;28;20065;-68
2022/05/31 07:33:35;;;;;;;10.18;6.40;;;;;;;13.89;71.95;101108.03;5211492;28;20362;-68
2022/05/31 07:36:07;;;;;;;11.80;6.88;;;;;;;14.03;74.71;101113.03;5204682;28;20113;-68
2022/05/31 07:38:41;;;;;;;10.90;6.90;;;;;;;14.12;72.59;101106.03;5199122;28;20074;-69
2022/05/31 07:41:12;;;;;;;9.35;6.30;;;;;;;14.26;73.80;101110.19;5211542;28;20384;-69
2022/05/31 07:43:44;;;;;;;9.43;6.38;;;;;;;14.41;72.67;101108.00;5203541;28;20029;-69
2022/05/31 07:46:15;;;;;;;7.90;5.55;;;;;;;14.52;70.19;101105.22;5202740;28;20030;-68
2022/05/31 07:48:46;;;;;;;8.13;5.95;;;;;;;14.51;72.07;101103.50;5207176;28;20038;-68
2022/05/31 07:51:17;;;;;;;7.28;5.25;;;;;;;14.61;69.56;101095.50;5207835;28;20502;-68
2022/05/31 07:53:49;;;;;;;8.27;5.10;;;;;;;14.59;68.73;101098.31;5212452;28;20041;-66
2022/05/31 07:56:21;;;;;;;8.43;5.00;;;;;;;14.63;67.80;101096.22;5203426;28;20038;-65
2022/05/31 07:58:56;;;;;;;8.38;5.15;;;;;;;14.74;69.34;101092.56;5214123;28;20404;-65
2022/05/31 08:01:27;;;;;;;8.93;5.30;;;;;;;14.69;69.33;101093.84;5206035;28;20033;-65
2022/05/31 08:03:58;;;;;;;8.65;6.10;;;;;;;14.65;68.25;101095.09;5214050;28;20518;-65
2022/05/31 08:06:32;;;;;;;9.68;5.95;;;;;;;14.56;66.61;101097.72;5205908;28;20073;-65
2022/05/31 08:09:04;;;;;;;10.37;6.40;;;;;;;14.76;67.82;101096.81;5217279;28;20038;-65
2022/05/31 08:11:35;;;;;;;8.57;4.80;;;;;;;14.91;69.54;101094.56;5216163;28;20300;-65
2022/05/31 08:14:07;;;;;;;8.80;5.43;;;;;;;15.06;69.33;101092.31;5215414;28;20038;-65
2022/05/31 08:16:39;;;;;;;9.60;5.78;;;;;;;15.18;69.33;101090.34;5226818;28;20041;-65
2022/05/31 08:19:10;;;;;;;8.45;5.80;;;;;;;15.32;66.22;101089.91;5217325;28;20480;-66
2022/05/31 08:21:41;;;;;;;9.05;5.40;;;;;;;15.53;67.22;101089.75;5213909;28;20396;-65
2022/05/31 08:24:13;;;;;;;9.55;6.10;;;;;;;15.63;67.03;101093.28;5215101;28;20537;-65
2022/05/31 08:26:44;;;;;;;8.27;5.93;;;;;;;15.59;65.79;101081.13;5214562;28;20041;-65
2022/05/31 08:29:16;;;;;;;10.25;6.03;;;;;;;15.69;65.09;101086.47;5217408;28;20032;-64
2022/05/31 08:31:47;;;;;;;9.05;6.43;;;;;;;15.75;63.93;101088.63;5217576;28;20565;-64
2022/05/31 08:34:18;;;;;;;8.60;6.50;;;;;;;15.95;65.71;101088.56;5217873;28;20033;-64
2022/05/31 08:36:50;;;;;;;9.75;6.05;;;;;;;16.02;63.91;101082.44;5204223;28;20484;-63
2022/05/31 08:39:21;;;;;;;8.23;6.30;;;;;;;16.21;67.80;101080.69;5215205;28;20558;-64
2022/05/31 08:42:03;;;;;;;8.45;5.65;;;;;;;16.42;63.72;101077.75;5199107;28;20085;-64
2022/05/31 08:44:53;;;;;;;9.40;6.32;;;;;;;16.48;65.25;101082.53;5208631;28;20029;-63
2022/05/31 08:47:49;;;;;;;9.27;6.13;;;;;;;16.61;62.04;101085.72;5228272;28;20030;-64
2022/05/31 08:53:47;;;;;;;8.40;5.53;;;;;;;16.80;62.81;101081.22;5206855;28;20045;-63
2022/05/31 08:59:17;;;;;;;5.97;5.00;;;;;;;17.01;60.49;101078.25;5216362;28;20037;-65
2022/05/31 09:01:54;;;;;;;8.10;4.88;;;;;;;16.91;58.64;101077.47;5208579;28;20414;-68
2022/05/31 09:04:45;;;;;;;5.93;4.32;;;;;;;16.99;61.63;101080.22;5213353;28;20504;-66
2022/05/31 09:07:24;;;;;;;7.25;4.68;;;;;;;16.93;58.85;101070.94;5205281;28;20421;-66
2022/05/31 09:10:05;;;;;;;8.00;5.10;;;;;;;16.96;59.93;101077.84;5210000;28;20071;-66
2022/05/31 09:12:39;;;;;;;10.18;5.78;;;;;;;16.69;59.31;101084.13;5214375;28;20116;-66
2022/05/31 09:15:19;;;;;;;;;;;;;;;16.88;63.66;101077.78;5217666;28;20029;-66
2022/05/31 09:18:39;;;;;;;11.05;5.45;;;;;;;16.66;60.94;101077.16;5213651;28;19999;-66
2022/05/31 09:21:26;;;;;;;7.38;5.72;;;;;;;16.78;59.38;101077.78;5203527;28;20101;-65
2022/05/31 09:23:58;;;;;;;8.18;5.70;;;;;;;16.78;59.20;101072.41;5207374;28;20026;-66
2022/05/31 09:26:46;;;;;;;9.15;5.70;;;;;;;16.88;60.81;101077.78;5224876;28;20113;-66
2022/05/31 09:29:21;;;;;;;12.43;5.40;;;;;;;17.03;59.64;101069.00;5202355;28;20027;-66
2022/05/31 09:32:15;;;;;;;8.65;5.43;;;;;;;17.01;59.59;101081.78;5214632;28;20041;-66
2022/05/31 09:34:55;;;;;;;9.23;4.77;;;;;;;17.26;60.13;101079.31;5215480;28;20026;-66
2022/05/31 09:38:01;;;;;;;8.45;4.82;;;;;;;17.24;58.27;101070.53;5215810;28;20030;-67
2022/05/31 09:41:11;;;;;;;7.40;5.43;;;;;;;17.23;56.54;101069.66;5201687;28;20058;-66
2022/05/31 09:43:50;;;;;;;6.57;4.50;;;;;;;17.21;57.84;101071.69;5200965;28;20060;-66
2022/05/31 09:46:34;;;;;;;8.23;4.55;;;;;;;17.49;56.73;101070.72;5216602;28;20038;-66
2022/05/31 09:49:20;;;;;;;7.03;4.78;;;;;;;17.72;56.26;101061.13;5210870;28;20374;-66
2022/05/31 09:51:51;;;;;;;8.15;4.80;;;;;;;17.92;55.58;101058.22;5212859;28;20029;-66
2022/05/31 09:57:21;;;;;;;7.80;5.05;;;;;;;17.69;57.09;101061.41;5212252;28;20038;-66
2022/05/31 10:00:00;;;;;;;5.50;4.22;;;;;;;17.67;55.91;101059.91;5208448;28;20136;-66
2022/05/31 10:02:36;;;;;;;6.85;4.78;;;;;;;17.46;55.89;101062.94;5201181;28;20408;-66
2022/05/31 10:05:17;;;;;;;6.57;4.90;;;;;;;17.57;57.16;101058.13;5205145;28;20022;-66
2022/05/31 10:07:49;;;;;;;7.95;5.28;;;;;;;17.49;55.84;101059.91;5215847;28;20033;-66
2022/05/31 10:10:28;;;;;;;9.00;5.85;;;;;;;17.77;54.46;101053.38;5215064;28;20719;-66
2022/05/31 10:13:04;;;;;;;7.20;5.68;;;;;;;17.57;54.36;101058.13;5206846;28;20084;-65
2022/05/31 10:15:44;;;;;;;7.75;5.70;;;;;;;17.68;55.79;101050.78;5202977;28;20097;-69
2022/05/31 10:18:29;;;;;;;10.45;6.15;;;;;;;17.91;56.70;101053.81;5208063;28;20116;-70
2022/05/31 10:21:02;;;;;;;;;;;;;;;18.16;58.61;101052.09;5212910;28;20105;-69
2022/05/31 10:23:43;;;;;;;7.40;5.43;;;;;;;18.16;55.85;101049.38;5211088;28;19940;-69
2022/05/31 10:26:26;;;;;;;6.95;4.90;;;;;;;18.17;58.90;101049.22;5215826;28;20040;-70
2022/05/31 10:29:07;;;;;;;10.40;5.72;;;;;;;18.20;57.13;101059.72;5215740;28;20104;-69
2022/05/31 10:31:42;;;;;;;11.23;6.20;;;;;;;17.97;54.40;101069.41;5210491;28;20030;-69
2022/05/31 10:34:36;;;;;;;8.02;6.00;;;;;;;18.17;57.95;101060.03;5197480;28;20023;-69
2022/05/31 10:37:26;;;;;;;7.65;5.10;;;;;;;18.22;57.63;101057.69;5199812;28;20027;-69
2022/05/31 10:40:09;;;;;;;6.47;5.55;;;;;;;18.21;54.50;101058.69;5205289;28;20096;-69
2022/05/31 10:42:47;;;;;;;6.85;5.00;;;;;;;18.44;55.36;101050.00;5213120;28;20037;-70
2022/05/31 10:45:31;;;;;;;8.13;5.40;;;;;;;18.36;55.89;101052.69;5215243;28;20049;-69
2022/05/31 10:48:02;;;;;;;8.23;5.15;;;;;;;18.30;56.78;101054.19;5206500;28;20026;-67
2022/05/31 10:51:00;;;;;;;7.65;5.45;;;;;;;18.20;53.55;101048.91;5211545;28;20025;-67
2022/05/31 10:53:56;;;;;;;7.40;5.05;;;;;;;18.06;55.09;101056.78;5209088;28;20038;-65
2022/05/31 10:56:31;;;;;;;7.60;4.85;;;;;;;18.02;54.33;101050.84;5212992;28;20030;-66
2022/05/31 10:59:05;;;;;;;;;;;;;;;18.24;58.23;101052.13;5216032;28;20085;-67
2022/05/31 11:01:43;;;;;;;7.72;5.53;;;;;;;17.82;55.91;101061.00;5212395;28;19913;-65
2022/05/31 11:04:52;;;;;;;6.30;5.32;;;;;;;17.63;56.29;101052.09;5212134;28;20105;-72
2022/05/31 11:07:34;;;;;;;7.78;5.05;;;;;;;17.40;57.30;101048.25;5206828;28;20041;-71
2022/05/31 11:13:47;;;;;;;6.55;4.57;;;;;;;17.40;57.66;101057.16;5209216;28;20057;-72
2022/05/31 11:16:43;;;;;;;7.82;5.07;;;;;;;17.35;58.12;101055.94;5214689;28;20053;-72
2022/05/31 11:19:50;;;;;;;7.30;5.05;;;;;;;17.27;57.69;101050.50;5200225;28;20034;-72
2022/05/31 11:22:43;;;;;;;8.27;4.55;;;;;;;17.25;55.34;101056.03;5210372;28;20033;-72
2022/05/31 11:25:45;;;;;;;7.43;5.13;;;;;;;17.39;56.01;101060.03;5214352;28;20055;-71
2022/05/31 11:28:47;;;;;;;7.70;5.15;;;;;;;17.50;57.53;101064.31;5230866;28;20468;-71
2022/05/31 11:31:33;;;;;;;7.00;4.68;;;;;;;17.44;55.91;101068.50;5209252;28;20775;-72
2022/05/31 11:34:19;;;;;;;7.90;5.10;;;;;;;17.62;59.46;101063.06;5211485;28;20511;-71
2022/05/31 11:36:57;;;;;;;7.55;5.18;;;;;;;17.61;59.46;101064.91;5216222;28;20034;-71
2022/05/31 11:39:41;;;;;;;7.82;5.20;;;;;;;17.77;59.87;101058.75;5215794;28;20038;-65
2022/05/31 11:42:28;;;;;;;8.55;5.10;;;;;;;18.23;58.33;101064.78;5208298;28;20030;-66
2022/05/31 11:45:03;;;;;;;8.63;4.80;;;;;;;18.40;58.64;101060.28;5213524;28;20037;-65
2022/05/31 11:47:43;;;;;;;6.72;5.03;;;;;;;18.61;54.71;101059.00;5212378;28;20392;-65
2022/05/31 11:50:30;;;;;;;7.15;5.75;;;;;;;18.46;54.70;101056.09;5199597;28;20022;-65
2022/05/31 11:53:23;;;;;;;8.35;5.88;;;;;;;18.17;54.68;101060.03;5216518;28;20049;-65
2022/05/31 11:56:19;;;;;;;6.05;4.05;;;;;;;18.25;56.88;101066.47;5216670;28;20574;-69
2022/05/31 11:59:06;;;;;;;4.63;2.58;;;;;;;18.25;52.54;101061.06;5199208;28;20231;-66
2022/05/31 12:01:52;;;;;;;5.13;2.30;;;;;;;18.28;54.12;101066.16;5215875;28;20113;-65
2022/05/31 12:04:30;;;;;;;2.88;1.80;;;;;;;18.21;51.39;101072.19;5216067;28;20032;-65
2022/05/31 12:07:32;;;;;;;3.92;1.85;;;;;;;18.32;52.25;101068.38;5199684;28;20053;-65
2022/05/31 12:10:16;;;;;;;3.95;1.90;;;;;;;18.46;53.54;101063.34;5216145;28;20033;-66
2022/05/31 12:12:48;;;;;;;4.78;2.20;;;;;;;18.57;50.35;101066.59;5217292;28;20602;-65
2022/05/31 12:15:22;;;;;;;3.67;1.80;;;;;;;18.45;49.01;101061.66;5209967;28;20033;-66
2022/05/31 12:18:12;;;;;;;4.18;2.08;;;;;;;18.57;48.54;101069.28;5215896;28;20041;-65
2022/05/31 12:20:56;;;;;;;3.83;2.70;;;;;;;18.48;48.88;101064.03;5199120;28;20019;-66
2022/05/31 12:23:46;;;;;;;4.72;3.50;;;;;;;18.66;50.47;101050.38;5204576;28;20076;-65
2022/05/31 12:26:34;;;;;;;5.57;3.33;;;;;;;18.99;48.19;101054.88;5209794;28;20029;-65